Neptune Avra — 9HKH6 — position and weather

sailwx.info

Track history (hours):
 
Tides and Currents Weather Stations Pressure Air Temp Water Temp Dewpoint Dewpoint Depression Visibility Wind Speed Wind Dir Waves Ship Positions

Neptune Avra

Last reported at 2016-Feb-10 17:27 UTC. Time now 2016-Feb-14 08:09 UTC.
Position N 40°45' E 029°36'.

Length 155 m; draft 6.5 m.

Type: Cargo ship. MMSI: 248598000.

Date/timePositionNaut miles runAvg speedWind from/ knotsBaromVisibWave heightAir tempDewpointWater temp
2016-Feb-10 17:27N 40°45' E 029°36'315 6.8
2016-Feb-08 19:23N 37°36' E 024°11'46515.1
2016-Feb-07 12:33N 36°42' E 014°31'1616.1
2016-Feb-07 11:33N 36°48' E 014°12'1615.7
2016-Feb-07 10:33N 36°54' E 013°54'26715.4
2016-Feb-06 17:12N 38°40' E 008°44'26715.8
2016-Feb-06 00:22N 40°43' E 003°36'1316.4
2016-Feb-05 23:33N 40°49' E 003°20'1716.6
2016-Feb-05 22:33N 40°57' E 003°01'1616.5
2016-Feb-05 21:33N 41°04' E 002°42'1616.3
2016-Feb-05 20:33N 41°12' E 002°22'1312.7
2016-Feb-05 19:33N 41°21' E 002°10'1 0.9
2016-Feb-05 18:28N 41°20' E 002°09'0 0.0
2016-Feb-05 17:27N 41°20' E 002°09'0 0.0
2016-Feb-05 14:08N 41°20' E 002°09'0 0.0
2016-Feb-05 13:32N 41°20' E 002°09'0 0.0
2016-Feb-05 12:31N 41°20' E 002°09'0 0.0
2016-Feb-05 11:33N 41°20' E 002°09'0 0.1
2016-Feb-05 05:30N 41°20' E 002°09'1 0.8
2016-Feb-05 04:33N 41°20' E 002°10'4 4.5
2016-Feb-05 03:33N 41°19' E 002°15'1413.5
2016-Feb-05 02:30N 41°26' E 002°32'1816.7
2016-Feb-05 01:27N 41°35' E 002°52'1516.6
2016-Feb-05 00:32N 41°44' E 003°08'1615.5
2016-Feb-04 23:31N 41°58' E 003°20'88 6.6
2016-Feb-04 10:06N 43°24' E 003°45'14011.0
2016-Feb-03 21:24N 41°18' E 002°22'1716.0
2016-Feb-03 20:22N 41°08' E 002°04'1316.6
2016-Feb-03 19:33N 40°59' E 001°51'1615.8
2016-Feb-03 18:33N 40°47' E 001°38'1515.4
2016-Feb-03 17:33N 40°35' E 001°24'1615.6
2016-Feb-03 16:33N 40°26' E 001°08'1615.6
2016-Feb-03 15:33N 40°17' E 000°52'62 6.1
2016-Feb-03 05:24N 39°38' W 000°13'67 1.6
2016-Feb-01 10:19N 39°27' E 001°14'1317.0
2016-Feb-01 09:33N 39°29' E 001°30'1717.3
2016-Feb-01 08:33N 39°32' E 001°53'1212.0
2016-Feb-01 07:33N 39°35' E 002°08'1 1.2
2016-Feb-01 06:33N 39°36' E 002°06'1 1.4
2016-Feb-01 05:33N 39°37' E 002°05'1 1.4
2016-Feb-01 04:33N 39°37' E 002°03'2 1.6
2016-Feb-01 03:33N 39°38' E 002°01'2 1.6
2016-Feb-01 02:33N 39°39' E 001°60'3 1.5
2016-Feb-01 00:30N 39°39' E 001°56'2 1.2
2016-Jan-31 23:11N 39°39' E 001°54'1 1.2
2016-Jan-31 22:33N 39°38' E 001°53'1 1.3
2016-Jan-31 21:33N 39°37' E 001°51'1 1.3
2016-Jan-31 20:33N 39°37' E 001°50'1 1.2
2016-Jan-31 19:33N 39°37' E 001°48'1 1.1
2016-Jan-31 18:33N 39°36' E 001°47'1 1.1
2016-Jan-31 17:32N 39°36' E 001°46'  
Track history (hours):
 
Tides and Currents Weather Stations Pressure Air Temp Water Temp Dewpoint Dewpoint Depression Visibility Wind Speed Wind Dir Waves Ship Positions

Neptune Avra

Last reported at 2016-Feb-10 17:27 UTC. Time now 2016-Feb-14 08:09 UTC.
Position N 40°45' E 029°36'.

Length 155 m; draft 6.5 m.

Type: Cargo ship. MMSI: 248598000.

Date/timePositionNaut miles runAvg speedWind from/ knotsBaromVisibWave heightAir tempDewpointWater temp
2016-Feb-10 17:27N 40°45' E 029°36'315 6.8
2016-Feb-08 19:23N 37°36' E 024°11'46515.1
2016-Feb-07 12:33N 36°42' E 014°31'1616.1
2016-Feb-07 11:33N 36°48' E 014°12'1615.7
2016-Feb-07 10:33N 36°54' E 013°54'26715.4
2016-Feb-06 17:12N 38°40' E 008°44'26715.8
2016-Feb-06 00:22N 40°43' E 003°36'1316.4
2016-Feb-05 23:33N 40°49' E 003°20'1716.6
2016-Feb-05 22:33N 40°57' E 003°01'1616.5
2016-Feb-05 21:33N 41°04' E 002°42'1616.3
2016-Feb-05 20:33N 41°12' E 002°22'1312.7
2016-Feb-05 19:33N 41°21' E 002°10'1 0.9
2016-Feb-05 18:28N 41°20' E 002°09'0 0.0
2016-Feb-05 17:27N 41°20' E 002°09'0 0.0
2016-Feb-05 14:08N 41°20' E 002°09'0 0.0
2016-Feb-05 13:32N 41°20' E 002°09'0 0.0
2016-Feb-05 12:31N 41°20' E 002°09'0 0.0
2016-Feb-05 11:33N 41°20' E 002°09'0 0.1
2016-Feb-05 05:30N 41°20' E 002°09'1 0.8
2016-Feb-05 04:33N 41°20' E 002°10'4 4.5
2016-Feb-05 03:33N 41°19' E 002°15'1413.5
2016-Feb-05 02:30N 41°26' E 002°32'1816.7
2016-Feb-05 01:27N 41°35' E 002°52'1516.6
2016-Feb-05 00:32N 41°44' E 003°08'1615.5
2016-Feb-04 23:31N 41°58' E 003°20'88 6.6
2016-Feb-04 10:06N 43°24' E 003°45'14011.0
2016-Feb-03 21:24N 41°18' E 002°22'1716.0
2016-Feb-03 20:22N 41°08' E 002°04'1316.6
2016-Feb-03 19:33N 40°59' E 001°51'1615.8
2016-Feb-03 18:33N 40°47' E 001°38'1515.4
2016-Feb-03 17:33N 40°35' E 001°24'1615.6
2016-Feb-03 16:33N 40°26' E 001°08'1615.6
2016-Feb-03 15:33N 40°17' E 000°52'62 6.1
2016-Feb-03 05:24N 39°38' W 000°13'67 1.6
2016-Feb-01 10:19N 39°27' E 001°14'1317.0
2016-Feb-01 09:33N 39°29' E 001°30'1717.3
2016-Feb-01 08:33N 39°32' E 001°53'1212.0
2016-Feb-01 07:33N 39°35' E 002°08'1 1.2
2016-Feb-01 06:33N 39°36' E 002°06'1 1.4
2016-Feb-01 05:33N 39°37' E 002°05'1 1.4
2016-Feb-01 04:33N 39°37' E 002°03'2 1.6
2016-Feb-01 03:33N 39°38' E 002°01'2 1.6
2016-Feb-01 02:33N 39°39' E 001°60'3 1.5
2016-Feb-01 00:30N 39°39' E 001°56'2 1.2
2016-Jan-31 23:11N 39°39' E 001°54'1 1.2
2016-Jan-31 22:33N 39°38' E 001°53'1 1.3
2016-Jan-31 21:33N 39°37' E 001°51'1 1.3
2016-Jan-31 20:33N 39°37' E 001°50'1 1.2
2016-Jan-31 19:33N 39°37' E 001°48'1 1.1
2016-Jan-31 18:33N 39°36' E 001°47'1 1.1
2016-Jan-31 17:32N 39°36' E 001°46'  

Dump ship's entire track history